createdAt,value
2023-02-23T00:15:32.403Z,13.77
2023-02-23T00:16:32.733Z,13.77
2023-02-23T00:17:31.682Z,13.77
2023-02-23T00:18:31.853Z,13.77
2023-02-23T00:19:31.515Z,13.79
2023-02-23T00:20:31.620Z,13.76
2023-02-23T00:21:31.536Z,13.74
2023-02-23T00:22:31.613Z,13.73
2023-02-23T00:23:31.476Z,13.72
2023-02-23T00:24:32.830Z,13.69
2023-02-23T00:25:31.493Z,13.69
2023-02-23T00:26:31.545Z,13.68
2023-02-23T00:27:31.556Z,13.69
2023-02-23T00:28:31.562Z,13.70
2023-02-23T00:29:31.508Z,13.69
2023-02-23T00:30:31.590Z,13.69
2023-02-23T00:31:31.613Z,13.69
2023-02-23T00:32:31.546Z,13.68
2023-02-23T00:33:31.500Z,13.66
2023-02-23T00:35:51.715Z,13.56
2023-02-23T00:36:52.549Z,13.61
2023-02-23T00:37:51.759Z,13.59
2023-02-23T00:38:51.508Z,13.61
2023-02-23T00:39:51.422Z,13.63
2023-02-23T00:40:51.445Z,13.62
2023-02-23T00:41:51.409Z,13.62
2023-02-23T00:44:54.537Z,13.58
2023-02-23T00:45:54.336Z,13.56
2023-02-23T00:46:55.177Z,13.58
2023-02-23T00:47:53.817Z,13.59
2023-02-23T00:48:53.849Z,13.59
2023-02-23T00:49:53.741Z,13.61
2023-02-23T00:50:53.776Z,13.59
2023-02-23T00:51:53.824Z,13.63
2023-02-23T00:52:53.803Z,13.65
2023-02-23T00:53:53.702Z,13.63
2023-02-23T00:54:53.706Z,13.63
2023-02-23T00:55:53.746Z,13.62
2023-02-23T00:56:53.748Z,13.62
2023-02-23T00:57:53.804Z,13.65
2023-02-23T00:58:53.721Z,13.68
2023-02-23T00:59:53.639Z,13.69
2023-02-23T01:00:53.766Z,13.72
2023-02-23T01:01:53.598Z,13.70
2023-02-23T01:02:53.726Z,13.68
2023-02-23T01:03:53.652Z,13.66
2023-02-23T01:04:53.633Z,13.63
2023-02-23T01:05:53.666Z,13.62
2023-02-23T01:06:53.792Z,13.63
2023-02-23T01:07:53.582Z,13.62
2023-02-23T01:08:53.573Z,13.61
2023-02-23T01:11:13.088Z,13.59
2023-02-23T01:12:13.095Z,13.59
2023-02-23T01:13:13.132Z,13.58
2023-02-23T01:14:13.165Z,13.59
2023-02-23T01:15:13.161Z,13.56
2023-02-23T01:16:13.196Z,13.62
2023-02-23T01:17:13.181Z,13.62
2023-02-23T01:18:13.209Z,13.62
2023-02-23T01:19:13.176Z,13.63
2023-02-23T01:20:13.287Z,13.63
2023-02-23T01:21:13.294Z,13.68
2023-02-23T01:22:13.237Z,13.66
2023-02-23T01:23:13.285Z,13.69
2023-02-23T01:24:13.290Z,13.70
2023-02-23T01:25:13.349Z,13.72
2023-02-23T01:26:13.335Z,13.72
2023-02-23T01:27:13.404Z,13.73
2023-02-23T01:28:13.428Z,13.74
2023-02-23T01:29:13.430Z,13.77
2023-02-23T01:30:13.426Z,13.79
2023-02-23T01:31:13.540Z,13.77
2023-02-23T01:32:13.598Z,13.79
2023-02-23T01:33:13.472Z,13.82
2023-02-23T01:34:13.462Z,13.80
2023-02-23T01:35:13.546Z,13.77
2023-02-23T01:36:14.291Z,13.79
2023-02-23T01:37:13.475Z,13.79
2023-02-23T01:38:13.559Z,13.76
2023-02-23T01:39:13.553Z,13.79
2023-02-23T01:40:13.634Z,13.79
2023-02-23T01:41:13.590Z,13.79
2023-02-23T01:42:13.625Z,13.80
2023-02-23T01:43:13.653Z,13.79
2023-02-23T01:44:13.637Z,13.82
2023-02-23T01:45:13.719Z,13.77
2023-02-23T01:46:13.703Z,13.80
2023-02-23T01:47:13.674Z,13.79
2023-02-23T01:48:13.698Z,13.77
2023-02-23T01:49:13.759Z,13.79
2023-02-23T01:50:13.798Z,13.79
2023-02-23T01:51:13.838Z,13.80
2023-02-23T01:52:13.831Z,13.76
2023-02-23T01:53:13.900Z,13.80
2023-02-23T01:54:13.849Z,13.79
2023-02-23T02:31:20.984Z,13.19
2023-02-23T02:32:20.651Z,13.17
2023-02-23T02:33:20.673Z,13.15
2023-02-23T02:34:20.687Z,13.15
2023-02-23T02:35:20.768Z,13.15
2023-02-23T02:36:20.897Z,13.17
2023-02-23T02:37:20.863Z,13.15
2023-02-23T02:38:20.900Z,13.17
2023-02-23T02:39:20.977Z,13.14
2023-02-23T02:40:21.040Z,13.11
2023-02-23T02:41:21.248Z,13.07
2023-02-23T02:42:21.195Z,13.07
2023-02-23T02:43:21.261Z,13.08
2023-02-23T02:44:21.271Z,13.05
2023-02-23T02:45:21.348Z,13.01
2023-02-23T02:46:21.442Z,12.97
2023-02-23T02:51:15.268Z,12.92
2023-02-23T02:52:15.074Z,12.91
2023-02-23T02:53:15.229Z,12.90
2023-02-23T03:36:13.788Z,12.60
2023-02-23T03:37:13.937Z,12.63
2023-02-23T03:38:14.048Z,12.66
2023-02-23T03:39:14.076Z,12.64
2023-02-23T03:40:13.658Z,12.61
2023-02-23T03:41:13.694Z,12.63
2023-02-23T03:42:13.630Z,12.60
2023-02-23T03:43:13.752Z,12.63
2023-02-23T03:44:13.623Z,12.61
2023-02-23T03:45:13.592Z,12.60
2023-02-23T03:46:13.619Z,12.57
2023-02-23T03:47:13.655Z,12.54
2023-02-23T03:48:13.506Z,12.53
2023-02-23T03:49:13.505Z,12.54
2023-02-23T03:50:13.516Z,12.56
2023-02-23T03:51:13.534Z,12.54
2023-02-23T03:52:13.507Z,12.56
2023-02-23T03:53:13.555Z,12.57
2023-02-23T03:54:14.337Z,12.57
2023-02-23T03:55:13.639Z,12.56
2023-02-23T03:56:13.697Z,12.56
2023-02-23T03:57:13.793Z,12.54
2023-02-23T03:58:13.766Z,12.51
2023-02-23T03:59:13.950Z,12.48
2023-02-23T04:00:13.967Z,12.43
2023-02-23T04:01:14.045Z,12.41
2023-02-23T04:02:14.177Z,12.41
2023-02-23T04:03:14.105Z,12.41
2023-02-23T04:04:14.288Z,12.37
2023-02-23T04:05:14.219Z,12.41
2023-02-23T04:06:14.309Z,12.41
2023-02-23T04:07:14.404Z,12.39
2023-02-23T04:08:14.488Z,12.40
2023-02-23T04:09:14.481Z,12.41
2023-02-23T04:10:14.470Z,12.41
2023-02-23T04:11:14.654Z,12.41
2023-02-23T09:04:06.700Z,15.38
2023-02-23T09:05:06.726Z,15.45
2023-02-23T09:06:06.672Z,15.50
2023-02-23T09:07:06.775Z,15.54
2023-02-23T09:08:06.820Z,15.64
2023-02-23T09:09:06.797Z,15.70
2023-02-23T09:10:06.779Z,15.70
2023-02-23T09:11:07.095Z,15.69
2023-02-23T09:12:06.897Z,15.71
2023-02-23T09:13:07.167Z,15.79
2023-02-23T09:14:07.019Z,15.87
2023-02-23T09:15:07.127Z,15.91
2023-02-23T09:16:07.150Z,15.98
2023-02-23T09:17:07.089Z,16.01
2023-02-23T09:18:07.193Z,16.04
2023-02-23T09:20:07.246Z,16.10
2023-02-23T09:21:07.067Z,16.12
2023-02-23T09:22:07.097Z,16.15
2023-02-23T09:23:07.230Z,16.18
2023-02-23T09:24:07.095Z,16.21
2023-02-23T09:25:07.247Z,16.25
2023-02-23T09:26:07.297Z,16.25
2023-02-23T09:28:07.301Z,16.27
2023-02-23T09:29:07.365Z,16.31
2023-02-23T09:30:07.638Z,16.34
2023-02-23T09:31:09.531Z,16.38
2023-02-23T09:32:12.228Z,16.40
2023-02-23T09:33:08.133Z,16.42
2023-02-23T09:34:07.817Z,16.45
2023-02-23T09:35:08.220Z,16.50
2023-02-23T09:37:27.292Z,16.51
2023-02-23T09:38:27.592Z,16.52
2023-02-23T09:39:37.606Z,16.59
2023-02-23T09:40:28.115Z,16.62
2023-02-23T09:41:27.178Z,16.54
2023-02-23T09:42:27.180Z,16.52
2023-02-23T09:43:27.238Z,16.27
2023-02-23T09:44:27.290Z,16.27
2023-02-23T09:45:27.094Z,16.34
2023-02-23T09:46:27.663Z,16.35
2023-02-23T09:47:27.106Z,16.36
2023-02-23T09:48:27.073Z,16.40
2023-02-23T09:49:27.065Z,16.35
2023-02-23T09:50:27.064Z,16.38
2023-02-23T09:51:27.131Z,16.45
2023-02-23T09:52:27.134Z,16.45
2023-02-23T09:53:28.207Z,16.55
2023-02-23T09:54:27.678Z,16.62
2023-02-23T09:55:27.165Z,16.69
2023-02-23T09:56:27.195Z,16.78
2023-02-23T09:57:27.188Z,16.71
2023-02-23T09:58:27.171Z,16.68
2023-02-23T09:59:27.207Z,16.71
2023-02-23T10:00:27.224Z,16.76
2023-02-23T10:01:27.251Z,16.80
2023-02-23T10:02:27.258Z,16.92
2023-02-23T10:03:27.217Z,17.01
2023-02-23T10:04:27.668Z,17.07
2023-02-23T11:12:27.013Z,21.85
2023-02-23T11:13:27.448Z,21.84
2023-02-23T11:14:26.504Z,21.85
2023-02-23T11:15:35.323Z,21.84
2023-02-23T11:16:27.638Z,21.81
2023-02-23T11:17:26.774Z,21.82
2023-02-23T11:18:26.541Z,21.81
2023-02-23T11:19:27.838Z,21.81
2023-02-23T11:20:26.661Z,21.78
2023-02-23T11:21:27.629Z,21.79
2023-02-23T11:22:27.136Z,21.78
2023-02-23T11:23:27.044Z,21.81
2023-02-23T11:24:27.808Z,21.81
2023-02-23T11:25:28.117Z,21.71
2023-02-23T11:26:27.120Z,21.68
2023-02-23T11:27:26.797Z,21.66
2023-02-23T11:28:27.139Z,21.64
2023-02-23T11:29:28.261Z,21.61
2023-02-23T11:30:27.105Z,21.59
2023-02-23T11:31:27.276Z,21.59
2023-02-23T11:32:27.147Z,21.58
2023-02-23T11:33:27.140Z,21.58
2023-02-23T11:34:27.661Z,21.56
2023-02-23T11:35:27.164Z,21.55
2023-02-23T11:36:27.129Z,21.55
2023-02-23T11:37:27.270Z,21.54
2023-02-23T11:40:27.414Z,21.56
2023-02-23T11:41:27.480Z,21.58
2023-02-23T11:42:27.417Z,21.56
2023-02-23T11:43:27.503Z,21.56
2023-02-23T11:44:27.898Z,21.55
2023-02-23T11:45:27.877Z,21.55
2023-02-23T11:46:27.611Z,21.55
2023-02-23T11:47:27.473Z,21.52
2023-02-23T11:48:27.852Z,21.46
2023-02-23T11:49:27.574Z,21.40
2023-02-23T11:50:27.674Z,21.40
2023-02-23T11:51:27.626Z,21.35
2023-02-23T11:52:27.782Z,21.31
2023-02-23T11:53:28.400Z,21.30
2023-02-23T11:54:27.910Z,21.27
2023-02-23T11:55:27.845Z,21.21
2023-02-23T11:56:27.897Z,21.20
2023-02-23T11:57:27.807Z,21.20
2023-02-23T11:58:28.090Z,21.20
2023-02-23T11:59:27.937Z,21.23
2023-02-23T12:00:28.009Z,21.18
2023-02-23T12:01:28.041Z,21.18
2023-02-23T12:02:28.060Z,21.13
2023-02-23T12:03:28.077Z,21.08
2023-02-23T12:04:28.120Z,21.03
2023-02-23T12:05:28.460Z,21.00
2023-02-23T12:06:28.187Z,20.97
2023-02-23T12:07:28.155Z,20.98
2023-02-23T14:16:42.747Z,18.52
2023-02-23T14:17:41.573Z,18.53
2023-02-23T14:18:41.737Z,18.48
2023-02-23T14:19:42.389Z,18.46
2023-02-23T14:20:41.549Z,18.45
2023-02-23T14:21:42.273Z,18.42
2023-02-23T14:22:41.517Z,18.43
2023-02-23T14:27:41.157Z,18.53
2023-02-23T14:28:35.267Z,18.55
2023-02-23T14:29:34.195Z,18.56
2023-02-23T14:30:34.454Z,18.53
2023-02-23T14:31:34.072Z,18.51
2023-02-23T14:32:34.677Z,18.48
2023-02-23T14:33:33.973Z,18.49
2023-02-23T14:34:34.105Z,18.51
2023-02-23T14:35:34.134Z,18.49
2023-02-23T14:36:34.188Z,18.52
2023-02-23T14:37:34.183Z,18.51
2023-02-23T14:38:47.139Z,18.49
2023-02-23T14:39:35.175Z,18.46
2023-02-23T14:40:34.202Z,18.42
2023-02-23T14:41:34.217Z,18.45
2023-02-23T14:42:34.186Z,18.45
2023-02-23T14:43:34.261Z,18.46
2023-02-23T14:44:34.197Z,18.48
2023-02-23T14:45:34.172Z,18.46
2023-02-23T14:46:34.210Z,18.49
2023-02-23T14:47:34.414Z,18.48
2023-02-23T14:48:34.235Z,18.39
2023-02-23T14:49:34.216Z,18.39
2023-02-23T14:50:34.891Z,18.36
2023-02-23T14:51:34.090Z,18.39
2023-02-23T14:52:34.109Z,18.38
2023-02-23T14:53:34.222Z,18.35
2023-02-23T14:54:34.258Z,18.32
2023-02-23T14:55:34.261Z,18.28
2023-02-23T14:56:43.737Z,18.25
2023-02-23T14:57:35.269Z,18.22
2023-02-23T14:58:34.288Z,18.19
2023-02-23T14:59:34.273Z,18.18
2023-02-23T15:00:34.998Z,18.19
2023-02-23T15:01:34.298Z,18.13
2023-02-23T15:02:40.652Z,18.15
2023-02-23T15:03:35.230Z,18.18
2023-02-23T21:20:40.764Z,13.52
2023-02-23T21:21:40.497Z,13.53
2023-02-23T21:22:40.474Z,13.52
2023-02-23T21:23:40.485Z,13.51
2023-02-23T21:24:40.464Z,13.48
2023-02-23T21:25:40.512Z,13.48
2023-02-23T21:26:40.446Z,13.49
2023-02-23T21:27:40.457Z,13.51
2023-02-23T21:28:40.465Z,13.46
2023-02-23T21:29:40.412Z,13.49
2023-02-23T21:30:40.461Z,13.51
2023-02-23T21:31:40.591Z,13.53
2023-02-23T21:32:40.500Z,13.51
2023-02-23T21:33:40.437Z,13.52
2023-02-23T21:34:40.399Z,13.53
2023-02-23T21:35:40.397Z,13.51
2023-02-23T21:36:40.408Z,13.51
2023-02-23T21:37:40.405Z,13.55
2023-02-23T21:38:40.384Z,13.49
2023-02-23T21:39:40.369Z,13.48
2023-02-23T21:40:40.398Z,13.49
2023-02-23T21:41:40.325Z,13.46
2023-02-23T22:05:31.184Z,13.02
2023-02-23T22:06:30.253Z,12.99
2023-02-23T22:07:30.675Z,13.01
2023-02-23T22:08:31.076Z,12.99
2023-02-23T22:09:30.273Z,12.97
2023-02-23T22:10:30.317Z,12.95
2023-02-23T22:11:30.217Z,12.95
2023-02-23T22:12:30.211Z,12.94
2023-02-23T22:13:30.276Z,12.91
2023-02-23T22:14:30.415Z,12.91
2023-02-23T22:15:30.357Z,12.90
2023-02-23T22:16:30.327Z,12.90
2023-02-23T22:46:07.849Z,12.58
2023-02-23T22:47:07.397Z,12.57
2023-02-23T22:48:07.404Z,12.58
2023-02-23T22:49:07.614Z,12.56
2023-02-23T22:50:07.205Z,12.56
2023-02-23T22:51:07.239Z,12.54
2023-02-23T22:52:07.127Z,12.56
2023-02-23T22:53:07.076Z,12.56
2023-02-23T23:34:02.245Z,12.12
2023-02-23T23:35:02.012Z,12.13
2023-02-23T23:36:01.816Z,12.12
2023-02-23T23:37:01.790Z,12.10
2023-02-23T23:38:01.789Z,12.07
2023-02-23T23:39:01.726Z,12.07
2023-02-23T23:40:01.751Z,12.05
2023-02-23T23:41:01.759Z,12.05
2023-02-23T23:42:01.773Z,12.05
2023-02-23T23:43:01.713Z,12.03
2023-02-23T23:44:01.736Z,11.99
2023-02-23T23:45:01.680Z,12.00
2023-02-23T23:46:01.765Z,12.03
2023-02-23T23:47:01.679Z,11.99
2023-02-23T23:48:01.704Z,11.95
2023-02-23T23:49:01.692Z,11.96
2023-02-23T23:50:01.651Z,11.93
2023-02-23T23:51:01.697Z,11.95
2023-02-23T23:52:02.010Z,11.93
2023-02-23T23:53:01.645Z,11.96
2023-02-23T23:54:01.650Z,11.96
2023-02-23T23:55:01.640Z,11.99
2023-02-23T23:56:01.629Z,11.99
2023-02-23T23:57:01.695Z,12.02
2023-02-23T23:58:01.688Z,12.00
2023-02-23T23:59:01.745Z,12.02
